sensor_id;sensor_type;location;lat;lon;timestamp;P1;durP1;ratioP1;P2;durP2;ratioP2
55913;SDS011;58179;48.776;9.124;2023-04-26T00:00:37;75.15;;;23.52;;
55913;SDS011;58179;48.776;9.124;2023-04-26T00:03:08;83.30;;;24.38;;
55913;SDS011;58179;48.776;9.124;2023-04-26T00:05:34;98.90;;;29.70;;
55913;SDS011;58179;48.776;9.124;2023-04-26T00:08:01;89.05;;;28.35;;
55913;SDS011;58179;48.776;9.124;2023-04-26T00:10:28;74.38;;;23.35;;
55913;SDS011;58179;48.776;9.124;2023-04-26T00:12:54;81.17;;;25.63;;
55913;SDS011;58179;48.776;9.124;2023-04-26T00:15:20;79.78;;;26.05;;
55913;SDS011;58179;48.776;9.124;2023-04-26T00:17:46;75.65;;;23.73;;
55913;SDS011;58179;48.776;9.124;2023-04-26T00:20:13;71.82;;;24.17;;
55913;SDS011;58179;48.776;9.124;2023-04-26T00:22:39;78.40;;;25.03;;
55913;SDS011;58179;48.776;9.124;2023-04-26T00:25:05;71.03;;;22.58;;
55913;SDS011;58179;48.776;9.124;2023-04-26T00:27:32;76.00;;;24.73;;
55913;SDS011;58179;48.776;9.124;2023-04-26T00:29:58;77.18;;;25.42;;
55913;SDS011;58179;48.776;9.124;2023-04-26T00:32:24;73.78;;;24.08;;
55913;SDS011;58179;48.776;9.124;2023-04-26T00:34:50;67.28;;;21.40;;
55913;SDS011;58179;48.776;9.124;2023-04-26T00:37:17;79.93;;;24.20;;
55913;SDS011;58179;48.776;9.124;2023-04-26T00:39:43;66.55;;;24.05;;
55913;SDS011;58179;48.776;9.124;2023-04-26T00:42:09;72.60;;;24.55;;
55913;SDS011;58179;48.776;9.124;2023-04-26T00:44:35;85.50;;;27.02;;
55913;SDS011;58179;48.776;9.124;2023-04-26T00:47:04;87.13;;;27.73;;
55913;SDS011;58179;48.776;9.124;2023-04-26T00:49:30;83.78;;;27.15;;
55913;SDS011;58179;48.776;9.124;2023-04-26T00:51:56;78.70;;;24.07;;
55913;SDS011;58179;48.776;9.124;2023-04-26T00:54:23;67.32;;;21.73;;
55913;SDS011;58179;48.776;9.124;2023-04-26T00:56:50;67.25;;;22.98;;
55913;SDS011;58179;48.776;9.124;2023-04-26T00:59:17;73.05;;;23.95;;
55913;SDS011;58179;48.776;9.124;2023-04-26T01:01:44;93.38;;;27.80;;
55913;SDS011;58179;48.776;9.124;2023-04-26T01:04:10;88.45;;;26.85;;
55913;SDS011;58179;48.776;9.124;2023-04-26T01:06:37;84.37;;;25.93;;
55913;SDS011;58179;48.776;9.124;2023-04-26T01:09:05;74.30;;;24.37;;
55913;SDS011;58179;48.776;9.124;2023-04-26T01:11:37;91.03;;;27.80;;
55913;SDS011;58179;48.776;9.124;2023-04-26T01:14:04;72.50;;;23.77;;
55913;SDS011;58179;48.776;9.124;2023-04-26T01:16:31;73.88;;;24.45;;
55913;SDS011;58179;48.776;9.124;2023-04-26T01:19:05;72.15;;;23.63;;
55913;SDS011;58179;48.776;9.124;2023-04-26T01:21:33;81.97;;;26.50;;
55913;SDS011;58179;48.776;9.124;2023-04-26T01:24:01;81.50;;;26.80;;
55913;SDS011;58179;48.776;9.124;2023-04-26T01:26:27;75.60;;;24.77;;
55913;SDS011;58179;48.776;9.124;2023-04-26T01:28:53;63.53;;;21.80;;
55913;SDS011;58179;48.776;9.124;2023-04-26T01:31:18;71.40;;;24.80;;
55913;SDS011;58179;48.776;9.124;2023-04-26T01:33:45;84.47;;;28.20;;
55913;SDS011;58179;48.776;9.124;2023-04-26T01:36:11;90.93;;;28.17;;
55913;SDS011;58179;48.776;9.124;2023-04-26T01:38:36;86.60;;;28.13;;
55913;SDS011;58179;48.776;9.124;2023-04-26T01:41:04;63.67;;;23.07;;
55913;SDS011;58179;48.776;9.124;2023-04-26T01:43:30;75.32;;;24.17;;
55913;SDS011;58179;48.776;9.124;2023-04-26T01:45:56;72.32;;;23.45;;
55913;SDS011;58179;48.776;9.124;2023-04-26T01:48:22;59.38;;;21.20;;
55913;SDS011;58179;48.776;9.124;2023-04-26T01:50:48;71.57;;;23.83;;
55913;SDS011;58179;48.776;9.124;2023-04-26T01:53:13;61.47;;;21.40;;
55913;SDS011;58179;48.776;9.124;2023-04-26T01:55:39;64.03;;;22.88;;
55913;SDS011;58179;48.776;9.124;2023-04-26T01:58:06;73.78;;;25.45;;
55913;SDS011;58179;48.776;9.124;2023-04-26T02:00:32;63.87;;;22.63;;
55913;SDS011;58179;48.776;9.124;2023-04-26T02:02:58;66.18;;;23.40;;
55913;SDS011;58179;48.776;9.124;2023-04-26T02:05:25;69.37;;;23.10;;
55913;SDS011;58179;48.776;9.124;2023-04-26T02:07:50;74.28;;;24.70;;
55913;SDS011;58179;48.776;9.124;2023-04-26T02:10:16;67.47;;;23.85;;
55913;SDS011;58179;48.776;9.124;2023-04-26T02:12:42;82.85;;;28.20;;
55913;SDS011;58179;48.776;9.124;2023-04-26T02:15:10;72.88;;;25.00;;
55913;SDS011;58179;48.776;9.124;2023-04-26T02:17:36;82.72;;;25.25;;
55913;SDS011;58179;48.776;9.124;2023-04-26T02:20:03;78.77;;;24.90;;
55913;SDS011;58179;48.776;9.124;2023-04-26T02:22:34;82.23;;;27.80;;
55913;SDS011;58179;48.776;9.124;2023-04-26T02:25:00;78.60;;;27.60;;
55913;SDS011;58179;48.776;9.124;2023-04-26T02:27:26;81.50;;;25.98;;
55913;SDS011;58179;48.776;9.124;2023-04-26T02:29:52;72.40;;;25.07;;
55913;SDS011;58179;48.776;9.124;2023-04-26T02:32:19;91.95;;;29.02;;
55913;SDS011;58179;48.776;9.124;2023-04-26T02:34:45;100.75;;;30.60;;
55913;SDS011;58179;48.776;9.124;2023-04-26T02:37:11;92.95;;;29.42;;
55913;SDS011;58179;48.776;9.124;2023-04-26T02:39:37;93.45;;;29.85;;
55913;SDS011;58179;48.776;9.124;2023-04-26T02:42:03;88.05;;;27.42;;
55913;SDS011;58179;48.776;9.124;2023-04-26T02:44:32;76.07;;;25.55;;
55913;SDS011;58179;48.776;9.124;2023-04-26T02:46:58;108.33;;;33.00;;
55913;SDS011;58179;48.776;9.124;2023-04-26T02:49:25;106.57;;;32.75;;
55913;SDS011;58179;48.776;9.124;2023-04-26T02:51:51;114.40;;;34.50;;
55913;SDS011;58179;48.776;9.124;2023-04-26T02:54:17;104.68;;;32.20;;
55913;SDS011;58179;48.776;9.124;2023-04-26T02:56:43;119.57;;;35.00;;
55913;SDS011;58179;48.776;9.124;2023-04-26T02:59:09;122.57;;;34.53;;
55913;SDS011;58179;48.776;9.124;2023-04-26T03:01:35;136.50;;;38.50;;
55913;SDS011;58179;48.776;9.124;2023-04-26T03:04:01;135.38;;;36.97;;
55913;SDS011;58179;48.776;9.124;2023-04-26T03:06:28;111.97;;;32.63;;
55913;SDS011;58179;48.776;9.124;2023-04-26T03:08:54;118.35;;;32.38;;
55913;SDS011;58179;48.776;9.124;2023-04-26T03:11:20;147.77;;;41.93;;
55913;SDS011;58179;48.776;9.124;2023-04-26T03:13:46;114.47;;;34.28;;
55913;SDS011;58179;48.776;9.124;2023-04-26T03:16:12;120.25;;;35.15;;
55913;SDS011;58179;48.776;9.124;2023-04-26T03:18:38;151.18;;;41.03;;
55913;SDS011;58179;48.776;9.124;2023-04-26T03:21:04;164.07;;;44.05;;
55913;SDS011;58179;48.776;9.124;2023-04-26T03:23:31;139.90;;;38.78;;
55913;SDS011;58179;48.776;9.124;2023-04-26T03:25:58;151.60;;;41.97;;
55913;SDS011;58179;48.776;9.124;2023-04-26T03:28:24;138.55;;;39.75;;
55913;SDS011;58179;48.776;9.124;2023-04-26T03:30:49;152.18;;;39.38;;
55913;SDS011;58179;48.776;9.124;2023-04-26T03:33:15;164.32;;;42.92;;
55913;SDS011;58179;48.776;9.124;2023-04-26T03:35:42;154.90;;;40.50;;
55913;SDS011;58179;48.776;9.124;2023-04-26T03:38:07;160.93;;;40.47;;
55913;SDS011;58179;48.776;9.124;2023-04-26T03:40:35;143.03;;;37.20;;
55913;SDS011;58179;48.776;9.124;2023-04-26T03:43:01;148.25;;;39.40;;
55913;SDS011;58179;48.776;9.124;2023-04-26T03:45:27;160.13;;;42.03;;
55913;SDS011;58179;48.776;9.124;2023-04-26T03:47:58;165.82;;;40.95;;
55913;SDS011;58179;48.776;9.124;2023-04-26T03:50:24;165.10;;;43.42;;
55913;SDS011;58179;48.776;9.124;2023-04-26T03:52:50;154.60;;;39.75;;
55913;SDS011;58179;48.776;9.124;2023-04-26T03:55:16;133.77;;;37.35;;
55913;SDS011;58179;48.776;9.124;2023-04-26T03:57:43;157.95;;;41.38;;
55913;SDS011;58179;48.776;9.124;2023-04-26T04:00:10;138.57;;;36.92;;
55913;SDS011;58179;48.776;9.124;2023-04-26T04:02:38;114.00;;;32.30;;
55913;SDS011;58179;48.776;9.124;2023-04-26T04:05:04;116.32;;;33.00;;
55913;SDS011;58179;48.776;9.124;2023-04-26T04:07:32;143.40;;;40.80;;
55913;SDS011;58179;48.776;9.124;2023-04-26T04:09:58;163.57;;;41.08;;
55913;SDS011;58179;48.776;9.124;2023-04-26T04:12:24;163.73;;;43.45;;
55913;SDS011;58179;48.776;9.124;2023-04-26T04:14:52;156.60;;;42.97;;
55913;SDS011;58179;48.776;9.124;2023-04-26T04:17:18;161.52;;;43.13;;
55913;SDS011;58179;48.776;9.124;2023-04-26T04:19:44;170.17;;;45.87;;
55913;SDS011;58179;48.776;9.124;2023-04-26T04:22:10;150.60;;;39.85;;
55913;SDS011;58179;48.776;9.124;2023-04-26T04:24:36;153.38;;;40.45;;
55913;SDS011;58179;48.776;9.124;2023-04-26T04:27:02;144.00;;;40.42;;
55913;SDS011;58179;48.776;9.124;2023-04-26T04:29:28;168.10;;;44.63;;
55913;SDS011;58179;48.776;9.124;2023-04-26T04:31:56;161.35;;;43.58;;
55913;SDS011;58179;48.776;9.124;2023-04-26T04:34:22;144.80;;;40.70;;
55913;SDS011;58179;48.776;9.124;2023-04-26T04:36:48;148.00;;;39.50;;
55913;SDS011;58179;48.776;9.124;2023-04-26T04:39:17;148.37;;;39.00;;
55913;SDS011;58179;48.776;9.124;2023-04-26T04:41:43;150.68;;;41.35;;
55913;SDS011;58179;48.776;9.124;2023-04-26T04:44:12;125.18;;;37.83;;
55913;SDS011;58179;48.776;9.124;2023-04-26T04:46:39;133.63;;;37.83;;
55913;SDS011;58179;48.776;9.124;2023-04-26T04:49:06;152.25;;;40.95;;
55913;SDS011;58179;48.776;9.124;2023-04-26T04:51:36;147.38;;;39.47;;
55913;SDS011;58179;48.776;9.124;2023-04-26T04:54:08;141.98;;;37.47;;
55913;SDS011;58179;48.776;9.124;2023-04-26T04:56:35;125.15;;;34.15;;
55913;SDS011;58179;48.776;9.124;2023-04-26T04:59:01;115.80;;;32.63;;
55913;SDS011;58179;48.776;9.124;2023-04-26T05:01:29;113.88;;;33.13;;
55913;SDS011;58179;48.776;9.124;2023-04-26T05:03:56;138.02;;;37.80;;
55913;SDS011;58179;48.776;9.124;2023-04-26T05:06:23;145.60;;;39.93;;
55913;SDS011;58179;48.776;9.124;2023-04-26T05:08:51;130.80;;;36.20;;
55913;SDS011;58179;48.776;9.124;2023-04-26T05:11:17;120.10;;;33.72;;
55913;SDS011;58179;48.776;9.124;2023-04-26T05:13:43;107.38;;;31.95;;
55913;SDS011;58179;48.776;9.124;2023-04-26T05:16:10;107.35;;;31.17;;
55913;SDS011;58179;48.776;9.124;2023-04-26T05:18:36;109.10;;;30.80;;
55913;SDS011;58179;48.776;9.124;2023-04-26T05:21:02;121.38;;;32.20;;
55913;SDS011;58179;48.776;9.124;2023-04-26T05:23:29;127.67;;;35.00;;
55913;SDS011;58179;48.776;9.124;2023-04-26T05:25:55;136.25;;;36.05;;
55913;SDS011;58179;48.776;9.124;2023-04-26T05:28:25;120.75;;;33.25;;
55913;SDS011;58179;48.776;9.124;2023-04-26T05:30:51;104.73;;;30.80;;
55913;SDS011;58179;48.776;9.124;2023-04-26T05:33:16;124.30;;;35.60;;
55913;SDS011;58179;48.776;9.124;2023-04-26T05:35:42;128.02;;;34.78;;
55913;SDS011;58179;48.776;9.124;2023-04-26T05:38:08;132.68;;;35.85;;
55913;SDS011;58179;48.776;9.124;2023-04-26T05:40:35;125.83;;;33.60;;
55913;SDS011;58179;48.776;9.124;2023-04-26T05:43:01;110.53;;;32.47;;
55913;SDS011;58179;48.776;9.124;2023-04-26T05:45:27;133.73;;;36.50;;
55913;SDS011;58179;48.776;9.124;2023-04-26T05:47:53;116.60;;;33.92;;
55913;SDS011;58179;48.776;9.124;2023-04-26T05:50:19;134.05;;;37.05;;
55913;SDS011;58179;48.776;9.124;2023-04-26T05:52:45;130.20;;;35.08;;
55913;SDS011;58179;48.776;9.124;2023-04-26T05:55:11;162.13;;;40.78;;
55913;SDS011;58179;48.776;9.124;2023-04-26T05:57:39;168.47;;;42.07;;
55913;SDS011;58179;48.776;9.124;2023-04-26T06:00:05;164.50;;;43.22;;
55913;SDS011;58179;48.776;9.124;2023-04-26T06:02:35;157.90;;;41.33;;
55913;SDS011;58179;48.776;9.124;2023-04-26T06:05:01;181.87;;;46.07;;
55913;SDS011;58179;48.776;9.124;2023-04-26T06:07:29;173.45;;;44.33;;
55913;SDS011;58179;48.776;9.124;2023-04-26T06:09:55;174.15;;;42.80;;
55913;SDS011;58179;48.776;9.124;2023-04-26T06:12:21;172.93;;;43.35;;
55913;SDS011;58179;48.776;9.124;2023-04-26T06:14:48;169.53;;;42.13;;
55913;SDS011;58179;48.776;9.124;2023-04-26T06:17:14;176.70;;;43.95;;
55913;SDS011;58179;48.776;9.124;2023-04-26T06:19:40;172.63;;;43.65;;
55913;SDS011;58179;48.776;9.124;2023-04-26T06:22:06;171.20;;;41.70;;
55913;SDS011;58179;48.776;9.124;2023-04-26T06:24:32;156.48;;;38.53;;
55913;SDS011;58179;48.776;9.124;2023-04-26T06:26:58;160.57;;;41.37;;
55913;SDS011;58179;48.776;9.124;2023-04-26T06:29:24;137.13;;;36.28;;
55913;SDS011;58179;48.776;9.124;2023-04-26T06:31:51;131.18;;;37.63;;
55913;SDS011;58179;48.776;9.124;2023-04-26T06:34:17;140.68;;;36.83;;
55913;SDS011;58179;48.776;9.124;2023-04-26T06:36:43;138.50;;;38.25;;
55913;SDS011;58179;48.776;9.124;2023-04-26T06:39:10;141.25;;;39.17;;
55913;SDS011;58179;48.776;9.124;2023-04-26T06:41:36;130.15;;;36.03;;
55913;SDS011;58179;48.776;9.124;2023-04-26T06:44:02;126.82;;;35.25;;
55913;SDS011;58179;48.776;9.124;2023-04-26T06:46:28;132.00;;;36.05;;
55913;SDS011;58179;48.776;9.124;2023-04-26T06:48:55;104.60;;;33.22;;
55913;SDS011;58179;48.776;9.124;2023-04-26T06:51:21;119.88;;;33.25;;
55913;SDS011;58179;48.776;9.124;2023-04-26T06:53:47;107.43;;;32.00;;
55913;SDS011;58179;48.776;9.124;2023-04-26T06:56:13;89.82;;;28.17;;
55913;SDS011;58179;48.776;9.124;2023-04-26T06:58:41;81.20;;;24.77;;
55913;SDS011;58179;48.776;9.124;2023-04-26T07:01:22;63.40;;;20.75;;
55913;SDS011;58179;48.776;9.124;2023-04-26T07:03:48;58.80;;;19.47;;
55913;SDS011;58179;48.776;9.124;2023-04-26T07:06:15;61.87;;;21.40;;
55913;SDS011;58179;48.776;9.124;2023-04-26T07:08:41;74.47;;;23.30;;
55913;SDS011;58179;48.776;9.124;2023-04-26T07:11:08;60.40;;;21.07;;
55913;SDS011;58179;48.776;9.124;2023-04-26T07:13:34;60.67;;;19.70;;
55913;SDS011;58179;48.776;9.124;2023-04-26T07:16:00;60.35;;;20.48;;
55913;SDS011;58179;48.776;9.124;2023-04-26T07:18:26;61.47;;;21.30;;
55913;SDS011;58179;48.776;9.124;2023-04-26T07:20:52;60.28;;;20.90;;
55913;SDS011;58179;48.776;9.124;2023-04-26T07:23:19;67.37;;;21.03;;
55913;SDS011;58179;48.776;9.124;2023-04-26T07:25:45;70.18;;;23.98;;
55913;SDS011;58179;48.776;9.124;2023-04-26T07:28:11;56.92;;;20.95;;
55913;SDS011;58179;48.776;9.124;2023-04-26T07:30:37;59.90;;;21.03;;
55913;SDS011;58179;48.776;9.124;2023-04-26T07:33:03;52.35;;;19.27;;
55913;SDS011;58179;48.776;9.124;2023-04-26T07:35:28;46.50;;;19.13;;
55913;SDS011;58179;48.776;9.124;2023-04-26T07:37:54;37.67;;;16.20;;
55913;SDS011;58179;48.776;9.124;2023-04-26T07:40:22;39.33;;;16.67;;
55913;SDS011;58179;48.776;9.124;2023-04-26T07:42:50;32.33;;;14.55;;
55913;SDS011;58179;48.776;9.124;2023-04-26T07:45:17;33.70;;;13.43;;
55913;SDS011;58179;48.776;9.124;2023-04-26T07:47:43;23.23;;;11.50;;
55913;SDS011;58179;48.776;9.124;2023-04-26T07:50:09;24.15;;;12.40;;
55913;SDS011;58179;48.776;9.124;2023-04-26T07:52:36;23.40;;;10.98;;
55913;SDS011;58179;48.776;9.124;2023-04-26T07:55:01;17.43;;;9.37;;
55913;SDS011;58179;48.776;9.124;2023-04-26T07:57:29;16.48;;;9.60;;
55913;SDS011;58179;48.776;9.124;2023-04-26T07:59:55;19.58;;;9.68;;
55913;SDS011;58179;48.776;9.124;2023-04-26T08:02:21;16.33;;;9.00;;
55913;SDS011;58179;48.776;9.124;2023-04-26T08:04:48;16.30;;;8.40;;
55913;SDS011;58179;48.776;9.124;2023-04-26T08:07:19;14.02;;;7.72;;
55913;SDS011;58179;48.776;9.124;2023-04-26T08:09:45;15.07;;;8.50;;
55913;SDS011;58179;48.776;9.124;2023-04-26T08:12:13;14.07;;;7.83;;
55913;SDS011;58179;48.776;9.124;2023-04-26T08:14:40;13.73;;;8.13;;
55913;SDS011;58179;48.776;9.124;2023-04-26T08:17:06;18.10;;;10.05;;
55913;SDS011;58179;48.776;9.124;2023-04-26T08:19:36;16.23;;;9.60;;
55913;SDS011;58179;48.776;9.124;2023-04-26T08:22:02;20.42;;;11.00;;
55913;SDS011;58179;48.776;9.124;2023-04-26T08:24:29;18.90;;;9.77;;
55913;SDS011;58179;48.776;9.124;2023-04-26T08:26:55;13.50;;;8.30;;
55913;SDS011;58179;48.776;9.124;2023-04-26T08:29:23;12.45;;;8.00;;
55913;SDS011;58179;48.776;9.124;2023-04-26T08:31:52;14.30;;;8.77;;
55913;SDS011;58179;48.776;9.124;2023-04-26T08:34:19;16.42;;;9.10;;
55913;SDS011;58179;48.776;9.124;2023-04-26T08:36:45;17.42;;;9.30;;
55913;SDS011;58179;48.776;9.124;2023-04-26T08:39:11;18.08;;;9.10;;
55913;SDS011;58179;48.776;9.124;2023-04-26T08:41:49;16.90;;;9.45;;
55913;SDS011;58179;48.776;9.124;2023-04-26T08:44:20;15.63;;;8.73;;
55913;SDS011;58179;48.776;9.124;2023-04-26T08:46:50;12.52;;;7.10;;
55913;SDS011;58179;48.776;9.124;2023-04-26T08:49:28;14.00;;;7.60;;
55913;SDS011;58179;48.776;9.124;2023-04-26T08:52:06;15.48;;;7.95;;
55913;SDS011;58179;48.776;9.124;2023-04-26T08:54:34;16.60;;;8.15;;
55913;SDS011;58179;48.776;9.124;2023-04-26T08:57:02;16.42;;;8.55;;
55913;SDS011;58179;48.776;9.124;2023-04-26T08:59:28;13.00;;;8.25;;
55913;SDS011;58179;48.776;9.124;2023-04-26T09:01:57;18.58;;;9.48;;
55913;SDS011;58179;48.776;9.124;2023-04-26T09:04:24;13.40;;;8.35;;
55913;SDS011;58179;48.776;9.124;2023-04-26T09:06:50;11.75;;;8.35;;
55913;SDS011;58179;48.776;9.124;2023-04-26T09:09:22;13.57;;;8.00;;
55913;SDS011;58179;48.776;9.124;2023-04-26T09:11:51;13.45;;;7.80;;
55913;SDS011;58179;48.776;9.124;2023-04-26T09:14:21;13.80;;;8.27;;
55913;SDS011;58179;48.776;9.124;2023-04-26T09:16:48;14.52;;;8.35;;
55913;SDS011;58179;48.776;9.124;2023-04-26T09:19:15;12.77;;;7.65;;
55913;SDS011;58179;48.776;9.124;2023-04-26T09:21:42;10.70;;;7.00;;
55913;SDS011;58179;48.776;9.124;2023-04-26T09:24:09;18.02;;;9.05;;
55913;SDS011;58179;48.776;9.124;2023-04-26T09:26:36;13.07;;;7.60;;
55913;SDS011;58179;48.776;9.124;2023-04-26T09:29:12;13.00;;;8.05;;
55913;SDS011;58179;48.776;9.124;2023-04-26T09:31:40;15.55;;;9.18;;
55913;SDS011;58179;48.776;9.124;2023-04-26T09:34:08;15.23;;;8.30;;
55913;SDS011;58179;48.776;9.124;2023-04-26T09:36:47;14.18;;;8.25;;
55913;SDS011;58179;48.776;9.124;2023-04-26T09:39:14;14.60;;;7.18;;
55913;SDS011;58179;48.776;9.124;2023-04-26T09:41:57;11.10;;;6.60;;
55913;SDS011;58179;48.776;9.124;2023-04-26T09:44:24;14.25;;;8.40;;
55913;SDS011;58179;48.776;9.124;2023-04-26T09:46:57;11.02;;;7.97;;
55913;SDS011;58179;48.776;9.124;2023-04-26T09:49:28;10.93;;;6.93;;
55913;SDS011;58179;48.776;9.124;2023-04-26T09:52:02;11.10;;;6.60;;
55913;SDS011;58179;48.776;9.124;2023-04-26T09:54:45;9.27;;;5.80;;
55913;SDS011;58179;48.776;9.124;2023-04-26T09:57:13;8.40;;;5.50;;
55913;SDS011;58179;48.776;9.124;2023-04-26T09:59:41;15.07;;;6.85;;
55913;SDS011;58179;48.776;9.124;2023-04-26T10:02:12;11.05;;;6.18;;
55913;SDS011;58179;48.776;9.124;2023-04-26T10:04:42;10.23;;;5.75;;
55913;SDS011;58179;48.776;9.124;2023-04-26T10:07:15;8.60;;;5.47;;
55913;SDS011;58179;48.776;9.124;2023-04-26T10:09:42;8.55;;;5.80;;
55913;SDS011;58179;48.776;9.124;2023-04-26T10:12:09;9.57;;;4.95;;
55913;SDS011;58179;48.776;9.124;2023-04-26T10:14:37;14.05;;;7.07;;
55913;SDS011;58179;48.776;9.124;2023-04-26T10:17:03;13.52;;;6.15;;
55913;SDS011;58179;48.776;9.124;2023-04-26T10:19:30;11.07;;;5.78;;
55913;SDS011;58179;48.776;9.124;2023-04-26T10:21:58;8.23;;;5.33;;
55913;SDS011;58179;48.776;9.124;2023-04-26T10:24:30;11.55;;;6.32;;
55913;SDS011;58179;48.776;9.124;2023-04-26T10:26:58;9.40;;;6.20;;
55913;SDS011;58179;48.776;9.124;2023-04-26T10:32:34;8.97;;;6.20;;
55913;SDS011;58179;48.776;9.124;2023-04-26T10:36:04;9.52;;;6.03;;
55913;SDS011;58179;48.776;9.124;2023-04-26T10:38:33;10.17;;;5.80;;
55913;SDS011;58179;48.776;9.124;2023-04-26T10:43:56;9.65;;;6.40;;
55913;SDS011;58179;48.776;9.124;2023-04-26T10:46:36;9.93;;;5.85;;
55913;SDS011;58179;48.776;9.124;2023-04-26T10:49:14;12.02;;;6.35;;
55913;SDS011;58179;48.776;9.124;2023-04-26T10:54:55;12.43;;;7.53;;
55913;SDS011;58179;48.776;9.124;2023-04-26T10:57:23;11.18;;;6.60;;
55913;SDS011;58179;48.776;9.124;2023-04-26T11:00:19;10.98;;;6.70;;
55913;SDS011;58179;48.776;9.124;2023-04-26T11:03:03;12.90;;;8.03;;
55913;SDS011;58179;48.776;9.124;2023-04-26T11:05:34;11.52;;;7.68;;
55913;SDS011;58179;48.776;9.124;2023-04-26T11:08:14;17.27;;;7.70;;
55913;SDS011;58179;48.776;9.124;2023-04-26T11:10:41;8.90;;;6.30;;
55913;SDS011;58179;48.776;9.124;2023-04-26T11:13:17;11.18;;;6.38;;
55913;SDS011;58179;48.776;9.124;2023-04-26T11:15:44;10.13;;;6.10;;
55913;SDS011;58179;48.776;9.124;2023-04-26T11:18:10;13.60;;;7.15;;
55913;SDS011;58179;48.776;9.124;2023-04-26T11:20:36;9.87;;;6.77;;
55913;SDS011;58179;48.776;9.124;2023-04-26T11:23:02;11.10;;;6.30;;
55913;SDS011;58179;48.776;9.124;2023-04-26T11:25:31;9.23;;;5.43;;
55913;SDS011;58179;48.776;9.124;2023-04-26T11:27:58;8.30;;;5.50;;
55913;SDS011;58179;48.776;9.124;2023-04-26T11:30:28;10.27;;;5.82;;
55913;SDS011;58179;48.776;9.124;2023-04-26T11:32:55;8.73;;;5.25;;
55913;SDS011;58179;48.776;9.124;2023-04-26T11:35:22;7.00;;;4.82;;
55913;SDS011;58179;48.776;9.124;2023-04-26T11:37:50;8.73;;;4.90;;
55913;SDS011;58179;48.776;9.124;2023-04-26T11:40:16;7.38;;;5.30;;
55913;SDS011;58179;48.776;9.124;2023-04-26T11:42:43;7.63;;;5.00;;
55913;SDS011;58179;48.776;9.124;2023-04-26T11:45:09;9.10;;;5.43;;
55913;SDS011;58179;48.776;9.124;2023-04-26T11:47:37;9.10;;;5.90;;
55913;SDS011;58179;48.776;9.124;2023-04-26T11:50:04;9.47;;;5.37;;
55913;SDS011;58179;48.776;9.124;2023-04-26T11:52:33;10.80;;;6.15;;
55913;SDS011;58179;48.776;9.124;2023-04-26T11:55:00;11.10;;;6.85;;
55913;SDS011;58179;48.776;9.124;2023-04-26T11:57:29;8.18;;;5.50;;
55913;SDS011;58179;48.776;9.124;2023-04-26T12:00:05;9.90;;;5.47;;
55913;SDS011;58179;48.776;9.124;2023-04-26T12:02:42;12.82;;;6.05;;
55913;SDS011;58179;48.776;9.124;2023-04-26T12:05:08;10.80;;;5.88;;
55913;SDS011;58179;48.776;9.124;2023-04-26T12:07:35;12.25;;;5.30;;
55913;SDS011;58179;48.776;9.124;2023-04-26T12:12:46;8.80;;;5.15;;
55913;SDS011;58179;48.776;9.124;2023-04-26T12:15:13;10.05;;;5.47;;
55913;SDS011;58179;48.776;9.124;2023-04-26T12:17:40;8.18;;;4.60;;
55913;SDS011;58179;48.776;9.124;2023-04-26T12:20:25;12.18;;;5.10;;
55913;SDS011;58179;48.776;9.124;2023-04-26T12:22:57;7.97;;;5.15;;
55913;SDS011;58179;48.776;9.124;2023-04-26T12:25:24;6.47;;;4.30;;
55913;SDS011;58179;48.776;9.124;2023-04-26T12:27:50;9.02;;;4.00;;
55913;SDS011;58179;48.776;9.124;2023-04-26T12:30:16;8.38;;;3.90;;
55913;SDS011;58179;48.776;9.124;2023-04-26T12:32:44;6.82;;;3.63;;
55913;SDS011;58179;48.776;9.124;2023-04-26T12:35:10;8.93;;;3.92;;
55913;SDS011;58179;48.776;9.124;2023-04-26T12:37:36;5.78;;;3.45;;
55913;SDS011;58179;48.776;9.124;2023-04-26T12:40:02;10.32;;;4.93;;
55913;SDS011;58179;48.776;9.124;2023-04-26T12:42:28;10.20;;;4.78;;
55913;SDS011;58179;48.776;9.124;2023-04-26T12:44:54;9.25;;;4.90;;
55913;SDS011;58179;48.776;9.124;2023-04-26T12:47:20;7.13;;;3.73;;
55913;SDS011;58179;48.776;9.124;2023-04-26T12:49:48;6.28;;;3.63;;
55913;SDS011;58179;48.776;9.124;2023-04-26T12:52:14;6.30;;;3.13;;
55913;SDS011;58179;48.776;9.124;2023-04-26T12:54:40;5.10;;;2.75;;
55913;SDS011;58179;48.776;9.124;2023-04-26T12:57:09;7.05;;;3.20;;
55913;SDS011;58179;48.776;9.124;2023-04-26T12:59:35;7.75;;;2.97;;
55913;SDS011;58179;48.776;9.124;2023-04-26T13:02:01;6.00;;;3.10;;
55913;SDS011;58179;48.776;9.124;2023-04-26T13:04:27;8.13;;;3.53;;
55913;SDS011;58179;48.776;9.124;2023-04-26T13:06:55;5.40;;;2.90;;
55913;SDS011;58179;48.776;9.124;2023-04-26T13:09:21;7.00;;;3.83;;
55913;SDS011;58179;48.776;9.124;2023-04-26T13:11:47;5.90;;;3.35;;
55913;SDS011;58179;48.776;9.124;2023-04-26T13:14:13;8.05;;;3.55;;
55913;SDS011;58179;48.776;9.124;2023-04-26T13:16:38;4.97;;;3.20;;
55913;SDS011;58179;48.776;9.124;2023-04-26T13:19:07;5.30;;;3.28;;
55913;SDS011;58179;48.776;9.124;2023-04-26T13:21:33;6.47;;;3.78;;
55913;SDS011;58179;48.776;9.124;2023-04-26T13:24:00;4.97;;;3.08;;
55913;SDS011;58179;48.776;9.124;2023-04-26T13:26:26;5.78;;;2.90;;
55913;SDS011;58179;48.776;9.124;2023-04-26T13:28:52;6.40;;;2.95;;
55913;SDS011;58179;48.776;9.124;2023-04-26T13:31:20;6.50;;;3.50;;
55913;SDS011;58179;48.776;9.124;2023-04-26T13:33:48;4.85;;;3.10;;
55913;SDS011;58179;48.776;9.124;2023-04-26T13:36:14;7.45;;;2.83;;
55913;SDS011;58179;48.776;9.124;2023-04-26T13:38:42;5.30;;;2.70;;
55913;SDS011;58179;48.776;9.124;2023-04-26T13:41:10;4.25;;;2.30;;
55913;SDS011;58179;48.776;9.124;2023-04-26T13:43:36;5.43;;;2.47;;
55913;SDS011;58179;48.776;9.124;2023-04-26T13:46:02;4.77;;;2.50;;
55913;SDS011;58179;48.776;9.124;2023-04-26T13:48:28;4.60;;;2.55;;
55913;SDS011;58179;48.776;9.124;2023-04-26T13:50:54;4.20;;;2.50;;
55913;SDS011;58179;48.776;9.124;2023-04-26T13:53:20;8.13;;;3.20;;
55913;SDS011;58179;48.776;9.124;2023-04-26T13:55:46;4.72;;;3.10;;
55913;SDS011;58179;48.776;9.124;2023-04-26T13:58:14;4.15;;;2.60;;
55913;SDS011;58179;48.776;9.124;2023-04-26T14:00:40;5.20;;;2.92;;
55913;SDS011;58179;48.776;9.124;2023-04-26T14:03:06;3.70;;;2.70;;
55913;SDS011;58179;48.776;9.124;2023-04-26T14:05:31;6.10;;;3.10;;
55913;SDS011;58179;48.776;9.124;2023-04-26T14:07:57;5.03;;;3.30;;
55913;SDS011;58179;48.776;9.124;2023-04-26T14:10:23;6.10;;;3.53;;
55913;SDS011;58179;48.776;9.124;2023-04-26T14:12:50;9.35;;;4.38;;
55913;SDS011;58179;48.776;9.124;2023-04-26T14:15:17;5.80;;;3.22;;
55913;SDS011;58179;48.776;9.124;2023-04-26T14:17:43;7.88;;;3.50;;
55913;SDS011;58179;48.776;9.124;2023-04-26T14:20:11;10.07;;;2.78;;
55913;SDS011;58179;48.776;9.124;2023-04-26T14:22:37;3.93;;;2.53;;
55913;SDS011;58179;48.776;9.124;2023-04-26T14:25:03;4.07;;;2.67;;
55913;SDS011;58179;48.776;9.124;2023-04-26T14:27:30;6.40;;;3.00;;
55913;SDS011;58179;48.776;9.124;2023-04-26T14:29:55;4.65;;;2.60;;
55913;SDS011;58179;48.776;9.124;2023-04-26T14:32:23;6.10;;;3.10;;
55913;SDS011;58179;48.776;9.124;2023-04-26T14:34:48;4.63;;;2.67;;
55913;SDS011;58179;48.776;9.124;2023-04-26T14:37:14;5.72;;;2.75;;
55913;SDS011;58179;48.776;9.124;2023-04-26T14:39:41;4.93;;;2.63;;